Time;durP1;ratioP1;P1;durP2;ratioP2;P2;SDS_P1;SDS_P2;PMS_P1;PMS_P2;Temp;Humidity;BMP_temperature;BMP_pressure;BME280_temperature;BME280_humidity;BME280_pressure;Samples;Min_cycle;Max_cycle;Signal;HPM_P1;HPM_P2
2021/07/06 00:02:17;;;;;;;19.10;17.20;;;;;;;;;;5132958;27;20047;-76
2021/07/06 00:04:45;;;;;;;22.80;18.95;;;;;;;;;;5133834;27;20042;-75
2021/07/06 00:07:12;;;;;;;20.80;18.70;;;;;;;;;;5133050;27;20565;-76
2021/07/06 00:09:38;;;;;;;21.00;18.90;;;;;;;;;;5132151;27;20062;-75
2021/07/06 00:12:04;;;;;;;24.52;20.23;;;;;;;;;;5133729;27;20043;-76
2021/07/06 00:14:30;;;;;;;25.30;20.10;;;;;;;;;;5133937;27;20043;-75
2021/07/06 00:16:57;;;;;;;22.05;19.75;;;;;;;;;;5133389;27;20469;-76
2021/07/06 00:19:23;;;;;;;22.15;19.77;;;;;;;;;;5132908;27;20072;-76
2021/07/06 00:21:49;;;;;;;23.33;19.83;;;;;;;;;;5132251;27;20039;-76
2021/07/06 00:24:15;;;;;;;25.40;22.70;;;;;;;;;;5134260;27;20474;-77
2021/07/06 00:26:41;;;;;;;23.10;20.45;;;;;;;;;;5133545;27;20103;-75
2021/07/06 00:29:07;;;;;;;23.17;19.23;;;;;;;;;;5131841;27;20043;-76
2021/07/06 00:31:33;;;;;;;20.30;18.25;;;;;;;;;;5132142;27;20118;-76
2021/07/06 00:33:59;;;;;;;26.98;20.00;;;;;;;;;;5133224;27;20487;-76
2021/07/06 00:36:26;;;;;;;21.52;17.98;;;;;;;;;;5132118;27;20043;-76
2021/07/06 00:38:52;;;;;;;25.35;20.40;;;;;;;;;;5131684;27;20035;-75
2021/07/06 00:41:18;;;;;;;20.38;18.23;;;;;;;;;;5132137;27;20049;-75
2021/07/06 00:43:44;;;;;;;22.17;18.30;;;;;;;;;;5133423;27;20440;-75
2021/07/06 00:46:10;;;;;;;20.90;18.77;;;;;;;;;;5143666;27;20108;-76
2021/07/06 00:48:36;;;;;;;22.90;19.67;;;;;;;;;;5134161;27;20157;-76
2021/07/06 00:51:03;;;;;;;22.15;18.33;;;;;;;;;;5132705;27;20050;-76
2021/07/06 00:53:29;;;;;;;21.55;18.38;;;;;;;;;;5132860;27;20066;-75
2021/07/06 00:55:57;;;;;;;20.70;18.58;;;;;;;;;;5132667;27;20039;-76
2021/07/06 00:58:23;;;;;;;21.40;18.20;;;;;;;;;;5132770;27;20050;-76
2021/07/06 01:00:50;;;;;;;22.17;17.95;;;;;;;;;;5133386;27;20092;-77
2021/07/06 01:03:16;;;;;;;19.88;17.67;;;;;;;;;;5133660;27;20043;-75
2021/07/06 01:05:43;;;;;;;21.17;18.98;;;;;;;;;;5133054;27;20031;-76
2021/07/06 01:08:09;;;;;;;21.52;17.58;;;;;;;;;;5131332;27;20054;-76
2021/07/06 01:10:36;;;;;;;18.63;16.65;;;;;;;;;;5133079;27;20032;-76
2021/07/06 01:13:03;;;;;;;19.42;17.00;;;;;;;;;;5131931;27;20500;-76
2021/07/06 01:15:30;;;;;;;20.58;18.13;;;;;;;;;;5132992;27;20099;-76
2021/07/06 01:18:07;;;;;;;22.77;18.48;;;;;;;;;;5130924;27;20374;-75
2021/07/06 01:20:34;;;;;;;19.15;17.27;;;;;;;;;;5132929;27;20095;-76
2021/07/06 01:23:01;;;;;;;19.60;17.55;;;;;;;;;;5127008;27;20435;-75
2021/07/06 01:25:27;;;;;;;20.63;18.38;;;;;;;;;;5132538;27;20469;-76
2021/07/06 01:27:53;;;;;;;19.85;17.48;;;;;;;;;;5132129;27;20500;-76
2021/07/06 01:30:19;;;;;;;18.30;16.52;;;;;;;;;;5133307;27;20184;-77
2021/07/06 01:32:47;;;;;;;22.88;17.30;;;;;;;;;;5131917;27;20065;-77
2021/07/06 01:35:14;;;;;;;19.08;17.17;;;;;;;;;;5132133;27;20069;-76
2021/07/06 01:37:50;;;;;;;18.98;16.95;;;;;;;;;;5132112;27;20050;-77
2021/07/06 01:40:18;;;;;;;18.85;16.95;;;;;;;;;;5127766;27;20038;-75
2021/07/06 01:42:44;;;;;;;20.83;18.50;;;;;;;;;;5131041;27;20064;-76
2021/07/06 01:45:15;;;;;;;19.08;16.80;;;;;;;;;;5131735;27;20096;-76
2021/07/06 01:47:42;;;;;;;19.10;17.17;;;;;;;;;;5132076;27;20551;-76
2021/07/06 01:50:10;;;;;;;18.13;16.40;;;;;;;;;;5130409;27;20176;-76
2021/07/06 01:52:40;;;;;;;18.38;16.45;;;;;;;;;;5130721;27;20039;-76
2021/07/06 01:55:08;;;;;;;22.35;16.85;;;;;;;;;;5131604;27;20436;-76
2021/07/06 01:57:34;;;;;;;18.42;16.63;;;;;;;;;;5132409;27;20035;-76
2021/07/06 02:00:03;;;;;;;18.67;16.67;;;;;;;;;;5130266;27;20115;-76
2021/07/06 02:02:29;;;;;;;18.92;16.17;;;;;;;;;;5130522;27;20045;-77
2021/07/06 02:04:55;;;;;;;17.92;15.70;;;;;;;;;;5130932;27;20101;-76
2021/07/06 02:07:22;;;;;;;17.83;15.35;;;;;;;;;;5131016;27;20047;-76
2021/07/06 02:09:48;;;;;;;18.45;15.93;;;;;;;;;;5112239;28;20039;-76
2021/07/06 02:12:14;;;;;;;19.05;14.75;;;;;;;;;;5130975;27;20039;-76
2021/07/06 02:14:40;;;;;;;17.25;15.18;;;;;;;;;;5132252;27;20078;-76
2021/07/06 02:17:07;;;;;;;16.23;14.55;;;;;;;;;;5130714;27;20082;-75
2021/07/06 02:19:33;;;;;;;17.55;14.82;;;;;;;;;;5128283;27;20100;-76
2021/07/06 02:21:59;;;;;;;15.55;14.15;;;;;;;;;;5130350;27;20065;-75
2021/07/06 02:24:25;;;;;;;16.25;14.60;;;;;;;;;;5131893;28;20127;-77
2021/07/06 02:26:53;;;;;;;16.50;14.95;;;;;;;;;;5131918;27;20032;-77
2021/07/06 02:29:19;;;;;;;16.85;14.60;;;;;;;;;;5131010;27;20040;-76
2021/07/06 02:31:45;;;;;;;16.60;14.88;;;;;;;;;;5131488;27;20426;-77
2021/07/06 02:34:15;;;;;;;15.85;14.23;;;;;;;;;;5133374;27;20039;-76
2021/07/06 02:36:41;;;;;;;17.30;14.27;;;;;;;;;;5136494;27;20035;-76
2021/07/06 02:39:07;;;;;;;15.07;13.57;;;;;;;;;;5135087;27;21384;-75
2021/07/06 02:41:33;;;;;;;15.82;13.93;;;;;;;;;;5131919;27;20043;-75
2021/07/06 02:43:59;;;;;;;16.17;13.68;;;;;;;;;;5135691;27;20031;-76
2021/07/06 02:46:25;;;;;;;14.73;13.30;;;;;;;;;;5134283;27;20062;-76
2021/07/06 02:48:52;;;;;;;14.13;12.65;;;;;;;;;;5135734;27;20039;-76
2021/07/06 02:51:19;;;;;;;17.27;13.32;;;;;;;;;;5135204;27;20050;-76
2021/07/06 02:53:46;;;;;;;13.48;11.95;;;;;;;;;;5131779;27;20042;-77
2021/07/06 02:56:13;;;;;;;14.10;12.38;;;;;;;;;;5134326;27;20109;-77
2021/07/06 02:58:39;;;;;;;14.15;12.52;;;;;;;;;;5134532;27;20035;-77
2021/07/06 03:01:05;;;;;;;14.07;11.73;;;;;;;;;;5133554;27;20043;-75
2021/07/06 03:03:31;;;;;;;15.25;11.20;;;;;;;;;;5135288;27;20382;-76
2021/07/06 03:05:58;;;;;;;14.48;10.93;;;;;;;;;;5134363;27;20035;-76
2021/07/06 03:08:25;;;;;;;15.27;11.32;;;;;;;;;;5135134;27;20070;-76
2021/07/06 03:10:51;;;;;;;15.77;11.55;;;;;;;;;;5135571;27;20038;-76
2021/07/06 03:13:18;;;;;;;14.27;11.40;;;;;;;;;;5133526;27;20121;-76
2021/07/06 03:15:44;;;;;;;12.70;11.35;;;;;;;;;;5135265;27;20038;-76
2021/07/06 03:18:11;;;;;;;19.55;11.65;;;;;;;;;;5133404;27;20035;-76
2021/07/06 03:20:37;;;;;;;16.65;10.93;;;;;;;;;;5135073;27;20063;-75
2021/07/06 03:23:04;;;;;;;20.20;11.70;;;;;;;;;;5135452;27;20078;-75
2021/07/06 03:25:32;;;;;;;12.32;10.70;;;;;;;;;;5133024;27;20482;-75
2021/07/06 03:28:00;;;;;;;11.65;10.38;;;;;;;;;;5134070;27;20039;-75
2021/07/06 03:30:27;;;;;;;12.85;11.43;;;;;;;;;;5132629;27;20039;-76
2021/07/06 03:32:54;;;;;;;11.43;10.23;;;;;;;;;;5135087;27;20066;-75
2021/07/06 03:35:21;;;;;;;13.23;10.00;;;;;;;;;;5134412;27;20065;-76
2021/07/06 03:37:47;;;;;;;12.70;10.70;;;;;;;;;;5134959;27;20039;-75
2021/07/06 03:40:13;;;;;;;11.02;9.95;;;;;;;;;;5133214;27;20043;-74
2021/07/06 03:42:40;;;;;;;11.93;10.63;;;;;;;;;;5134555;27;20039;-75
2021/07/06 03:45:08;;;;;;;10.68;9.55;;;;;;;;;;5133401;27;20066;-74
2021/07/06 03:47:34;;;;;;;11.07;9.85;;;;;;;;;;5134503;27;20038;-74
2021/07/06 03:50:00;;;;;;;10.85;9.27;;;;;;;;;;5134401;27;20031;-75
2021/07/06 03:52:27;;;;;;;12.13;9.30;;;;;;;;;;5133820;27;20043;-76
2021/07/06 03:54:53;;;;;;;9.65;8.65;;;;;;;;;;5134097;27;20042;-77
2021/07/06 03:57:29;;;;;;;9.52;8.60;;;;;;;;;;5132776;27;20508;-74
2021/07/06 03:59:59;;;;;;;11.90;9.02;;;;;;;;;;5134489;27;20039;-75
2021/07/06 04:02:25;;;;;;;11.50;8.57;;;;;;;;;;5134607;27;20054;-74
2021/07/06 04:04:52;;;;;;;9.93;8.95;;;;;;;;;;5137626;27;20035;-74
2021/07/06 04:07:18;;;;;;;13.23;8.32;;;;;;;;;;5134074;27;20051;-75
2021/07/06 04:09:45;;;;;;;11.13;8.38;;;;;;;;;;5132704;27;20096;-75
2021/07/06 04:12:12;;;;;;;12.82;9.20;;;;;;;;;;5133880;27;20498;-74
2021/07/06 04:14:38;;;;;;;9.85;8.75;;;;;;;;;;5115933;27;20070;-74
2021/07/06 04:17:05;;;;;;;10.85;8.93;;;;;;;;;;5134096;27;20509;-74
2021/07/06 04:19:31;;;;;;;11.52;8.77;;;;;;;;;;5133293;27;20043;-74
2021/07/06 04:21:57;;;;;;;10.82;9.52;;;;;;;;;;5132829;27;20114;-75
2021/07/06 04:24:23;;;;;;;15.80;8.40;;;;;;;;;;5132057;27;20387;-75
2021/07/06 04:26:49;;;;;;;10.60;9.07;;;;;;;;;;5132171;27;20035;-74
2021/07/06 04:29:15;;;;;;;10.50;8.52;;;;;;;;;;5133412;27;20050;-74
2021/07/06 04:31:41;;;;;;;12.90;9.48;;;;;;;;;;5115555;27;20042;-75
2021/07/06 04:34:08;;;;;;;12.75;8.52;;;;;;;;;;5133516;27;20045;-74
2021/07/06 04:36:34;;;;;;;9.70;8.70;;;;;;;;;;5130630;27;20035;-74
2021/07/06 04:39:00;;;;;;;10.07;8.52;;;;;;;;;;5134001;27;20109;-74
2021/07/06 04:41:26;;;;;;;11.68;8.18;;;;;;;;;;5131264;27;20031;-74
2021/07/06 04:43:52;;;;;;;9.52;8.27;;;;;;;;;;5132568;27;20172;-74
2021/07/06 04:46:19;;;;;;;9.90;8.10;;;;;;;;;;5113124;27;20100;-74
2021/07/06 04:48:45;;;;;;;9.65;7.72;;;;;;;;;;5133609;27;20030;-75
2021/07/06 04:51:11;;;;;;;10.73;8.07;;;;;;;;;;5133017;27;20501;-74
2021/07/06 04:53:39;;;;;;;7.72;6.45;;;;;;;;;;5131335;27;20328;-74
2021/07/06 04:56:05;;;;;;;9.80;6.55;;;;;;;;;;5132652;27;20096;-75
2021/07/06 04:58:31;;;;;;;8.73;6.68;;;;;;;;;;5131244;27;20049;-76
2021/07/06 05:01:00;;;;;;;9.65;6.45;;;;;;;;;;5133077;27;20039;-74
2021/07/06 05:03:28;;;;;;;8.98;5.72;;;;;;;;;;5130463;27;20039;-74
2021/07/06 05:05:55;;;;;;;7.70;6.00;;;;;;;;;;5131966;27;20032;-75
2021/07/06 05:08:21;;;;;;;6.13;5.50;;;;;;;;;;5131047;27;20057;-75
2021/07/06 05:10:47;;;;;;;8.63;5.07;;;;;;;;;;5132149;27;20487;-75
2021/07/06 05:13:14;;;;;;;6.70;5.05;;;;;;;;;;5134149;27;20039;-73
2021/07/06 05:15:40;;;;;;;5.18;4.68;;;;;;;;;;5133109;27;20635;-79
2021/07/06 05:18:06;;;;;;;5.65;4.88;;;;;;;;;;5115010;27;20546;-74
2021/07/06 05:20:33;;;;;;;5.63;4.40;;;;;;;;;;5131397;27;20043;-73
2021/07/06 05:23:00;;;;;;;6.40;4.43;;;;;;;;;;5135142;27;20485;-74
2021/07/06 05:25:26;;;;;;;5.63;3.95;;;;;;;;;;5152672;27;20042;-74
2021/07/06 05:27:52;;;;;;;6.68;3.80;;;;;;;;;;5130960;27;20039;-73
2021/07/06 05:30:20;;;;;;;5.30;3.17;;;;;;;;;;5133889;27;20047;-76
2021/07/06 05:32:46;;;;;;;3.05;2.75;;;;;;;;;;5128698;27;20050;-78
2021/07/06 05:35:13;;;;;;;3.05;2.75;;;;;;;;;;5129697;27;20043;-80
2021/07/06 05:37:39;;;;;;;5.05;2.38;;;;;;;;;;5135456;27;20042;-80
2021/07/06 05:40:07;;;;;;;4.30;2.75;;;;;;;;;;5101648;27;20472;-81
2021/07/06 05:42:34;;;;;;;2.38;1.90;;;;;;;;;;5127571;27;20454;-79
2021/07/06 05:45:00;;;;;;;3.25;2.13;;;;;;;;;;5131008;27;20067;-80
2021/07/06 05:47:27;;;;;;;2.63;2.22;;;;;;;;;;5127839;27;20126;-75
2021/07/06 05:49:53;;;;;;;3.95;2.10;;;;;;;;;;5132320;27;20485;-76
2021/07/06 05:52:19;;;;;;;3.35;1.75;;;;;;;;;;5132524;27;20474;-78
2021/07/06 05:54:45;;;;;;;4.63;1.92;;;;;;;;;;5129365;27;20481;-78
2021/07/06 05:57:12;;;;;;;3.28;1.73;;;;;;;;;;5132055;27;20035;-79
2021/07/06 05:59:38;;;;;;;3.47;1.65;;;;;;;;;;5131187;27;20043;-79
2021/07/06 06:02:04;;;;;;;5.75;1.63;;;;;;;;;;5113863;27;20042;-74
2021/07/06 06:04:30;;;;;;;4.13;1.55;;;;;;;;;;5115159;27;20039;-79
2021/07/06 06:06:56;;;;;;;3.58;1.77;;;;;;;;;;5140475;27;20058;-81
2021/07/06 06:09:23;;;;;;;3.10;1.52;;;;;;;;;;5130409;27;20035;-77
2021/07/06 06:11:49;;;;;;;4.50;1.55;;;;;;;;;;5130820;27;20388;-79
2021/07/06 06:14:16;;;;;;;5.85;2.20;;;;;;;;;;5121961;27;21115;-80
2021/07/06 06:16:42;;;;;;;5.63;1.38;;;;;;;;;;5124053;27;20039;-81
2021/07/06 06:19:08;;;;;;;4.07;1.30;;;;;;;;;;5129219;27;20091;-82
2021/07/06 06:21:34;;;;;;;3.33;1.63;;;;;;;;;;5127751;27;20043;-75
2021/07/06 06:24:00;;;;;;;4.53;1.58;;;;;;;;;;5130053;27;20050;-79
2021/07/06 06:26:27;;;;;;;2.75;1.20;;;;;;;;;;5129295;27;20057;-79
2021/07/06 06:28:53;;;;;;;1.90;1.40;;;;;;;;;;5113695;28;20047;-77
2021/07/06 06:31:19;;;;;;;2.22;1.27;;;;;;;;;;5131442;28;20074;-78
2021/07/06 06:33:46;;;;;;;3.17;1.58;;;;;;;;;;5130255;27;20371;-77
2021/07/06 06:36:12;;;;;;;2.70;1.52;;;;;;;;;;5130601;27;20039;-83
2021/07/06 06:38:38;;;;;;;3.28;1.92;;;;;;;;;;5131338;28;20406;-75
2021/07/06 06:41:04;;;;;;;2.45;1.33;;;;;;;;;;5132779;27;20509;-77
2021/07/06 06:43:30;;;;;;;3.78;1.88;;;;;;;;;;5129013;27;20095;-75
2021/07/06 06:45:56;;;;;;;7.15;1.70;;;;;;;;;;5130521;27;20166;-75
2021/07/06 06:48:23;;;;;;;2.92;1.55;;;;;;;;;;5135998;27;20115;-76
2021/07/06 06:50:49;;;;;;;3.58;1.73;;;;;;;;;;5129246;27;20579;-77
2021/07/06 06:53:15;;;;;;;5.57;1.70;;;;;;;;;;5129437;28;20047;-77
2021/07/06 06:55:41;;;;;;;3.58;1.45;;;;;;;;;;5125629;27;20047;-76
2021/07/06 06:58:08;;;;;;;6.53;1.73;;;;;;;;;;5112393;28;20046;-75
2021/07/06 07:00:35;;;;;;;5.93;1.58;;;;;;;;;;5113431;27;20428;-76
2021/07/06 07:03:01;;;;;;;6.63;2.00;;;;;;;;;;5138501;27;20055;-77
2021/07/06 07:05:27;;;;;;;2.70;1.40;;;;;;;;;;5122885;27;20043;-75
2021/07/06 07:07:57;;;;;;;4.57;2.00;;;;;;;;;;5126356;27;20056;-76
2021/07/06 07:10:24;;;;;;;3.80;1.70;;;;;;;;;;5134210;27;20039;-75
2021/07/06 07:12:50;;;;;;;6.82;1.58;;;;;;;;;;5140794;27;20050;-75
2021/07/06 07:15:16;;;;;;;5.65;1.55;;;;;;;;;;5129378;27;20076;-75
2021/07/06 07:17:43;;;;;;;4.03;2.08;;;;;;;;;;5134860;27;20070;-78
2021/07/06 07:20:12;;;;;;;4.70;1.95;;;;;;;;;;5139340;27;20039;-76
2021/07/06 07:22:39;;;;;;;3.55;2.13;;;;;;;;;;5133028;27;20038;-78
2021/07/06 07:25:05;;;;;;;5.72;1.80;;;;;;;;;;5147114;27;20058;-76
2021/07/06 07:27:32;;;;;;;5.00;2.00;;;;;;;;;;5161420;27;20550;-79
2021/07/06 07:29:58;;;;;;;2.90;1.92;;;;;;;;;;5126708;27;20100;-77
2021/07/06 07:32:24;;;;;;;6.32;2.10;;;;;;;;;;5127348;27;20382;-77
2021/07/06 07:34:51;;;;;;;6.13;2.00;;;;;;;;;;5114160;27;20118;-76
2021/07/06 07:37:18;;;;;;;4.72;2.20;;;;;;;;;;5148279;27;20035;-77
2021/07/06 07:39:45;;;;;;;3.97;2.00;;;;;;;;;;5133643;27;20059;-77
2021/07/06 07:42:11;;;;;;;6.28;1.80;;;;;;;;;;5135094;27;20035;-77
2021/07/06 07:44:37;;;;;;;5.82;2.13;;;;;;;;;;5132713;27;20046;-75
2021/07/06 07:47:04;;;;;;;4.85;2.20;;;;;;;;;;5134999;27;20079;-76
2021/07/06 07:49:30;;;;;;;4.85;2.10;;;;;;;;;;5130763;27;20047;-76
2021/07/06 07:51:56;;;;;;;7.05;2.22;;;;;;;;;;5120198;27;20500;-77
2021/07/06 07:54:22;;;;;;;5.65;2.10;;;;;;;;;;5120462;27;20079;-76
2021/07/06 07:56:48;;;;;;;6.80;2.50;;;;;;;;;;5133705;27;20073;-76
2021/07/06 07:59:14;;;;;;;3.13;1.90;;;;;;;;;;5121236;27;20040;-75
2021/07/06 08:01:41;;;;;;;3.28;1.73;;;;;;;;;;5120369;27;20040;-75
2021/07/06 08:04:07;;;;;;;3.80;2.17;;;;;;;;;;5136811;27;20039;-76
2021/07/06 08:06:33;;;;;;;6.07;2.33;;;;;;;;;;5129453;27;20032;-75
2021/07/06 08:08:59;;;;;;;4.43;2.10;;;;;;;;;;5127103;27;20031;-75
2021/07/06 08:11:25;;;;;;;6.68;1.83;;;;;;;;;;5132000;27;20035;-77
2021/07/06 08:13:52;;;;;;;4.72;1.80;;;;;;;;;;5123162;27;20047;-76
2021/07/06 08:16:18;;;;;;;5.70;2.42;;;;;;;;;;5131164;27;20043;-76
2021/07/06 08:18:44;;;;;;;4.75;1.85;;;;;;;;;;5129590;27;20086;-75
2021/07/06 08:21:10;;;;;;;4.72;2.00;;;;;;;;;;5125545;27;20039;-76
2021/07/06 08:23:36;;;;;;;4.70;2.00;;;;;;;;;;5115718;27;20053;-76
2021/07/06 08:26:03;;;;;;;5.05;2.20;;;;;;;;;;5133479;27;20039;-76
2021/07/06 08:28:29;;;;;;;5.03;2.00;;;;;;;;;;5134009;27;20066;-77
2021/07/06 08:30:56;;;;;;;6.68;2.05;;;;;;;;;;5132332;27;20043;-76
2021/07/06 08:33:22;;;;;;;6.78;2.53;;;;;;;;;;5133574;27;20035;-76
2021/07/06 08:35:48;;;;;;;4.70;2.50;;;;;;;;;;5130757;27;20090;-77
2021/07/06 08:38:14;;;;;;;6.65;2.22;;;;;;;;;;5132729;27;20062;-76
2021/07/06 08:40:44;;;;;;;3.22;1.98;;;;;;;;;;5132196;27;20043;-77
2021/07/06 08:43:10;;;;;;;9.77;2.15;;;;;;;;;;5131133;27;20047;-76
2021/07/06 08:45:38;;;;;;;4.07;1.75;;;;;;;;;;5131134;27;20119;-77
2021/07/06 08:48:04;;;;;;;3.03;2.15;;;;;;;;;;5132429;27;20587;-77
2021/07/06 08:50:30;;;;;;;6.57;2.10;;;;;;;;;;5132416;27;20039;-77
2021/07/06 08:52:56;;;;;;;4.80;2.10;;;;;;;;;;5128034;27;20405;-78
2021/07/06 08:55:23;;;;;;;4.70;2.42;;;;;;;;;;5102081;28;20507;-78
2021/07/06 08:57:52;;;;;;;4.80;2.10;;;;;;;;;;5111804;28;20059;-77
2021/07/06 09:00:19;;;;;;;7.35;2.15;;;;;;;;;;5133835;27;20076;-77
2021/07/06 09:02:55;;;;;;;2.80;2.10;;;;;;;;;;5147138;27;20043;-78
2021/07/06 09:05:22;;;;;;;3.60;2.20;;;;;;;;;;5113621;27;20040;-78
2021/07/06 09:07:49;;;;;;;4.80;2.25;;;;;;;;;;5112460;28;20097;-77
2021/07/06 09:10:17;;;;;;;2.88;2.10;;;;;;;;;;5117183;27;20505;-77
2021/07/06 09:12:47;;;;;;;5.63;1.75;;;;;;;;;;5132937;27;20047;-77
2021/07/06 09:15:20;;;;;;;7.82;2.00;;;;;;;;;;5139105;27;20047;-76
2021/07/06 09:17:46;;;;;;;4.20;2.13;;;;;;;;;;5124460;27;20049;-77
2021/07/06 09:20:12;;;;;;;6.75;2.10;;;;;;;;;;5096378;27;20409;-76
2021/07/06 09:22:38;;;;;;;3.75;1.70;;;;;;;;;;5153992;27;20043;-77
2021/07/06 09:25:07;;;;;;;3.75;1.58;;;;;;;;;;5127738;27;20513;-79
2021/07/06 09:27:34;;;;;;;3.78;1.80;;;;;;;;;;5116377;27;20047;-77
2021/07/06 09:30:07;;;;;;;4.90;2.10;;;;;;;;;;5126982;27;20160;-77
2021/07/06 09:32:33;;;;;;;3.70;1.75;;;;;;;;;;5112697;28;20052;-77
2021/07/06 09:35:10;;;;;;;2.58;1.30;;;;;;;;;;5123855;27;20039;-76
2021/07/06 09:38:02;;;;;;;5.10;1.48;;;;;;;;;;5116835;27;20031;-77
2021/07/06 09:40:39;;;;;;;4.32;1.33;;;;;;;;;;5121142;27;20497;-77
2021/07/06 09:43:24;;;;;;;3.70;1.27;;;;;;;;;;5131187;27;20423;-77
2021/07/06 09:46:09;;;;;;;6.05;1.23;;;;;;;;;;5127350;27;20042;-76
2021/07/06 09:48:38;;;;;;;2.95;1.00;;;;;;;;;;5132302;27;20039;-77
2021/07/06 09:51:15;;;;;;;2.08;0.95;;;;;;;;;;5132309;27;20110;-77
2021/07/06 09:53:42;;;;;;;2.95;1.25;;;;;;;;;;5132935;27;20064;-76
2021/07/06 09:56:09;;;;;;;2.78;1.20;;;;;;;;;;5131362;27;20405;-76
2021/07/06 09:58:49;;;;;;;2.85;1.25;;;;;;;;;;5131047;27;20042;-76
2021/07/06 10:01:15;;;;;;;2.10;1.08;;;;;;;;;;5131234;27;20066;-76
2021/07/06 10:03:41;;;;;;;5.75;1.48;;;;;;;;;;5132754;27;20046;-76
2021/07/06 10:06:07;;;;;;;4.00;2.15;;;;;;;;;;5130470;27;20039;-77
2021/07/06 10:08:34;;;;;;;6.32;1.73;;;;;;;;;;5110512;28;20055;-77
2021/07/06 10:11:00;;;;;;;3.65;1.67;;;;;;;;;;5118674;27;20480;-77
2021/07/06 10:13:27;;;;;;;5.07;1.77;;;;;;;;;;5131797;27;20119;-77
2021/07/06 10:15:54;;;;;;;4.75;1.67;;;;;;;;;;5129512;27;20039;-84
2021/07/06 10:18:21;;;;;;;89.57;81.35;;;;;;;;;;5130723;27;20047;-79
2021/07/06 10:20:47;;;;;;;33.67;6.50;;;;;;;;;;5128674;27;20047;-77
2021/07/06 10:23:14;;;;;;;8.18;2.90;;;;;;;;;;5128862;27;20050;-78
2021/07/06 10:25:41;;;;;;;7.70;2.42;;;;;;;;;;5128067;27;20031;-81
2021/07/06 10:28:08;;;;;;;13.80;3.53;;;;;;;;;;5128193;28;20410;-76
2021/07/06 10:30:44;;;;;;;7.60;3.53;;;;;;;;;;5136410;27;20121;-81
2021/07/06 10:33:14;;;;;;;8.88;3.42;;;;;;;;;;5131860;27;20043;-79
2021/07/06 10:35:40;;;;;;;8.63;3.45;;;;;;;;;;5131036;27;20088;-81
2021/07/06 10:38:25;;;;;;;6.70;3.45;;;;;;;;;;5128812;27;20070;-77
2021/07/06 10:40:51;;;;;;;11.75;3.55;;;;;;;;;;5130009;27;20054;-84
2021/07/06 10:43:48;;;;;;;8.15;3.25;;;;;;;;;;5128469;27;20070;-76
2021/07/06 10:46:20;;;;;;;7.18;3.95;;;;;;;;;;5125857;27;20370;-78
2021/07/06 10:48:47;;;;;;;5.82;3.13;;;;;;;;;;5132277;27;20046;-78
2021/07/06 10:51:43;;;;;;;6.47;2.65;;;;;;;;;;5129710;27;20122;-81
2021/07/06 10:54:17;;;;;;;4.30;2.30;;;;;;;;;;5130759;27;20039;-79
2021/07/06 10:56:44;;;;;;;10.13;2.95;;;;;;;;;;5133915;27;20114;-76
2021/07/06 10:59:24;;;;;;;5.35;1.90;;;;;;;;;;5140783;27;20137;-80
2021/07/06 11:01:51;;;;;;;5.70;2.10;;;;;;;;;;5141952;27;20035;-80
2021/07/06 11:04:46;;;;;;;4.93;2.10;;;;;;;;;;5135776;27;20039;-78
2021/07/06 11:07:13;;;;;;;7.43;2.78;;;;;;;;;;5130915;27;20051;-76
2021/07/06 11:09:39;;;;;;;6.95;2.03;;;;;;;;;;5134845;27;20051;-84
2021/07/06 11:12:25;;;;;;;8.85;2.03;;;;;;;;;;5132161;27;20050;-76
2021/07/06 11:15:01;;;;;;;4.57;1.90;;;;;;;;;;5133981;27;20382;-76
2021/07/06 11:17:46;;;;;;;8.30;3.65;;;;;;;;;;5136464;27;20047;-75
2021/07/06 11:20:12;;;;;;;3.83;1.40;;;;;;;;;;5127870;27;20134;-80
2021/07/06 11:22:40;;;;;;;6.20;1.48;;;;;;;;;;5134005;27;20046;-76
2021/07/06 11:25:37;;;;;;;3.10;1.23;;;;;;;;;;5134455;27;20477;-73
2021/07/06 11:28:06;;;;;;;4.53;1.27;;;;;;;;;;5118795;27;20047;-78
2021/07/06 11:30:46;;;;;;;6.57;1.58;;;;;;;;;;5134658;27;20038;-75
2021/07/06 11:33:19;;;;;;;7.10;1.58;;;;;;;;;;5139067;27;20114;-75
2021/07/06 11:35:46;;;;;;;4.07;1.30;;;;;;;;;;5136358;27;20095;-74
2021/07/06 11:38:13;;;;;;;5.63;1.20;;;;;;;;;;5127773;27;20120;-80
2021/07/06 11:40:41;;;;;;;4.30;1.55;;;;;;;;;;5122243;27;20248;-79
2021/07/06 11:43:09;;;;;;;2.88;1.30;;;;;;;;;;5124415;27;20054;-79
2021/07/06 11:45:36;;;;;;;3.90;1.20;;;;;;;;;;5128269;27;20043;-74
2021/07/06 11:48:03;;;;;;;4.15;1.00;;;;;;;;;;5125272;27;20046;-79
2021/07/06 11:50:30;;;;;;;4.80;1.42;;;;;;;;;;5121966;27;20092;-81
2021/07/06 11:52:57;;;;;;;5.57;1.00;;;;;;;;;;5121415;27;20035;-78
2021/07/06 11:55:24;;;;;;;10.05;1.77;;;;;;;;;;5143791;27;20047;-79
2021/07/06 11:57:54;;;;;;;3.83;1.00;;;;;;;;;;5125530;27;20043;-87
2021/07/06 12:00:22;;;;;;;5.70;1.17;;;;;;;;;;5140345;27;20595;-78
2021/07/06 12:02:48;;;;;;;6.22;1.00;;;;;;;;;;5138873;27;20123;-79
2021/07/06 12:05:18;;;;;;;6.28;1.60;;;;;;;;;;5122511;27;20487;-82
2021/07/06 12:07:45;;;;;;;5.47;1.15;;;;;;;;;;5153549;27;20051;-81
2021/07/06 12:10:12;;;;;;;6.57;1.67;;;;;;;;;;5125633;27;20050;-81
2021/07/06 12:12:38;;;;;;;4.10;0.90;;;;;;;;;;5132708;27;20035;-80
2021/07/06 12:15:06;;;;;;;8.35;1.23;;;;;;;;;;5129400;27;20035;-80
2021/07/06 12:17:34;;;;;;;8.10;1.23;;;;;;;;;;5133343;27;20041;-80
2021/07/06 12:20:01;;;;;;;7.30;1.00;;;;;;;;;;5117527;27;20080;-77
2021/07/06 12:22:28;;;;;;;9.13;1.20;;;;;;;;;;5133604;27;20316;-79
2021/07/06 12:24:55;;;;;;;8.95;1.20;;;;;;;;;;5149303;27;20080;-78
2021/07/06 12:27:25;;;;;;;4.72;0.80;;;;;;;;;;5132738;27;20114;-80
2021/07/06 12:29:57;;;;;;;6.28;1.10;;;;;;;;;;5133236;27;20030;-78
2021/07/06 12:32:23;;;;;;;2.40;0.90;;;;;;;;;;5134971;27;20039;-78
2021/07/06 12:34:59;;;;;;;5.28;1.20;;;;;;;;;;5133385;27;20119;-79
2021/07/06 12:37:26;;;;;;;7.40;1.83;;;;;;;;;;5132493;27;20381;-78
2021/07/06 12:39:53;;;;;;;6.10;0.93;;;;;;;;;;5126225;27;20039;-79
2021/07/06 12:42:20;;;;;;;8.98;1.40;;;;;;;;;;5141240;27;20030;-79
2021/07/06 12:44:47;;;;;;;8.07;1.40;;;;;;;;;;5130809;27;20057;-78
2021/07/06 12:47:13;;;;;;;4.38;1.17;;;;;;;;;;5149191;27;20171;-77
2021/07/06 12:49:41;;;;;;;6.47;1.02;;;;;;;;;;5133087;27;20040;-80
2021/07/06 12:52:07;;;;;;;11.50;1.40;;;;;;;;;;5131283;27;20039;-80
2021/07/06 12:54:34;;;;;;;8.75;1.40;;;;;;;;;;5133276;27;20042;-80
2021/07/06 12:57:02;;;;;;;10.52;1.70;;;;;;;;;;5130692;27;20062;-80
2021/07/06 12:59:30;;;;;;;6.25;1.35;;;;;;;;;;5143835;27;20043;-76
2021/07/06 13:01:57;;;;;;;10.27;1.50;;;;;;;;;;5131894;27;20478;-80
2021/07/06 13:04:23;;;;;;;7.10;1.33;;;;;;;;;;5129628;27;20113;-76
2021/07/06 13:06:50;;;;;;;10.63;1.42;;;;;;;;;;5133491;27;20087;-76
2021/07/06 13:09:28;;;;;;;4.72;0.98;;;;;;;;;;5128675;27;20092;-75
2021/07/06 13:11:55;;;;;;;5.30;1.27;;;;;;;;;;5128286;27;20043;-76
2021/07/06 13:14:22;;;;;;;8.70;1.55;;;;;;;;;;5131063;27;20569;-75
2021/07/06 13:16:49;;;;;;;12.65;1.90;;;;;;;;;;5134561;27;20694;-76
2021/07/06 13:19:25;;;;;;;10.95;1.30;;;;;;;;;;5132365;27;20043;-76
2021/07/06 13:21:52;;;;;;;5.82;0.93;;;;;;;;;;5134402;27;20116;-76
2021/07/06 13:24:18;;;;;;;7.45;1.00;;;;;;;;;;5129682;27;20173;-75
2021/07/06 13:26:45;;;;;;;6.45;1.00;;;;;;;;;;5133680;27;20122;-76
2021/07/06 13:29:11;;;;;;;5.05;1.25;;;;;;;;;;5132618;27;20463;-76
2021/07/06 13:31:40;;;;;;;8.45;1.55;;;;;;;;;;5132439;27;20040;-76
2021/07/06 13:34:08;;;;;;;4.15;0.93;;;;;;;;;;5131832;27;20038;-76
2021/07/06 13:36:35;;;;;;;8.05;1.40;;;;;;;;;;5133144;27;20051;-76
2021/07/06 13:39:01;;;;;;;7.53;1.05;;;;;;;;;;5133691;27;20410;-76
2021/07/06 13:41:28;;;;;;;4.78;0.80;;;;;;;;;;5134385;27;20047;-76
2021/07/06 13:43:54;;;;;;;4.45;0.90;;;;;;;;;;5130408;27;20042;-76
2021/07/06 13:46:21;;;;;;;6.85;1.15;;;;;;;;;;5117414;27;20054;-76
2021/07/06 13:48:47;;;;;;;4.95;0.88;;;;;;;;;;5133041;27;21207;-76
2021/07/06 13:51:14;;;;;;;7.43;1.45;;;;;;;;;;5133088;27;20590;-76
2021/07/06 13:53:40;;;;;;;6.53;0.82;;;;;;;;;;5116547;27;20042;-75
2021/07/06 13:56:06;;;;;;;5.18;0.82;;;;;;;;;;5131575;27;20039;-74
2021/07/06 13:58:32;;;;;;;4.30;0.85;;;;;;;;;;5130762;27;20038;-75
2021/07/06 14:00:59;;;;;;;7.78;1.10;;;;;;;;;;5133192;27;20069;-77
2021/07/06 14:03:25;;;;;;;2.33;0.80;;;;;;;;;;5129488;27;20112;-76
2021/07/06 14:05:52;;;;;;;3.95;0.77;;;;;;;;;;5133426;27;20050;-75
2021/07/06 14:08:18;;;;;;;4.78;1.10;;;;;;;;;;5142448;27;20061;-75
2021/07/06 14:10:45;;;;;;;5.78;1.05;;;;;;;;;;5132808;27;20477;-75
2021/07/06 14:13:12;;;;;;;4.00;1.00;;;;;;;;;;5140598;27;20043;-75
2021/07/06 14:15:38;;;;;;;8.05;1.15;;;;;;;;;;5137285;27;20401;-75
2021/07/06 14:18:04;;;;;;;5.95;0.90;;;;;;;;;;5144561;27;20050;-75
2021/07/06 14:20:31;;;;;;;6.15;0.88;;;;;;;;;;5142722;27;20031;-75
2021/07/06 14:22:59;;;;;;;5.90;1.13;;;;;;;;;;5134603;27;20058;-75
2021/07/06 14:25:25;;;;;;;6.25;1.10;;;;;;;;;;5128838;27;20047;-74
2021/07/06 14:27:51;;;;;;;5.95;1.02;;;;;;;;;;5130618;27;20042;-74
2021/07/06 14:30:17;;;;;;;6.03;1.48;;;;;;;;;;5151909;27;20035;-75
2021/07/06 14:32:43;;;;;;;9.30;1.30;;;;;;;;;;5129969;27;20047;-75
2021/07/06 14:35:14;;;;;;;4.43;0.90;;;;;;;;;;5130397;28;20092;-79
2021/07/06 14:37:42;;;;;;;5.25;1.05;;;;;;;;;;5130199;28;20038;-73
2021/07/06 14:40:09;;;;;;;11.18;1.27;;;;;;;;;;5132010;27;20043;-76